createdAt,value
2018-04-24T00:00:44.126Z,16
2018-04-24T00:01:44.146Z,16.04
2018-04-24T00:02:44.165Z,15.95
2018-04-24T00:03:44.191Z,16.04
2018-04-24T00:04:44.467Z,16
2018-04-24T00:05:44.491Z,16.1
2018-04-24T00:06:44.513Z,16.02
2018-04-24T00:07:44.281Z,16.15
2018-04-24T00:08:44.307Z,16.2
2018-04-24T00:09:44.639Z,16.17
2018-04-24T00:10:44.394Z,16.28
2018-04-24T00:11:44.366Z,16.29
2018-04-24T00:12:44.640Z,16.1
2018-04-24T00:13:44.681Z,16.1
2018-04-24T00:14:44.429Z,16.05
2018-04-24T00:15:44.724Z,16.01
2018-04-24T00:16:44.481Z,16.08
2018-04-24T00:17:44.495Z,15.98
2018-04-24T00:18:44.519Z,15.94
2018-04-24T00:19:44.547Z,16
2018-04-24T00:20:44.564Z,15.98
2018-04-24T00:21:44.882Z,16.04
2018-04-24T00:22:44.603Z,16.1
2018-04-24T00:23:44.629Z,16.05
2018-04-24T00:24:44.703Z,15.98
2018-04-24T00:25:44.429Z,16.08
2018-04-24T00:26:44.696Z,16.04
2018-04-24T00:27:44.973Z,16
2018-04-24T00:28:45.000Z,16.08
2018-04-24T00:29:45.017Z,16.1
2018-04-24T00:30:45.059Z,16.01
2018-04-24T00:31:45.084Z,16.09
2018-04-24T00:32:45.083Z,15.88
2018-04-24T00:33:44.610Z,15.86
2018-04-24T00:34:45.139Z,15.95
2018-04-24T00:35:45.152Z,16.08
2018-04-24T00:36:45.180Z,16.02
2018-04-24T00:37:45.195Z,15.97
2018-04-24T00:38:45.223Z,15.97
2018-04-24T00:39:45.302Z,15.98
2018-04-24T00:40:45.266Z,15.97
2018-04-24T00:41:45.034Z,15.98
2018-04-24T00:42:45.308Z,16.15
2018-04-24T00:43:45.332Z,16.24
2018-04-24T00:44:45.096Z,16.2
2018-04-24T00:45:44.869Z,16.28
2018-04-24T00:46:45.144Z,16.13
2018-04-24T00:47:45.183Z,16.13
2018-04-24T00:48:45.190Z,16.13
2018-04-24T00:49:45.464Z,16.26
2018-04-24T00:50:44.974Z,16.09
2018-04-24T00:51:45.246Z,16.21
2018-04-24T00:52:45.526Z,16.13
2018-04-24T00:53:45.555Z,16.2
2018-04-24T00:54:45.620Z,16.23
2018-04-24T00:55:45.583Z,16.15
2018-04-24T00:56:45.361Z,16.23
2018-04-24T00:57:45.629Z,16.38
2018-04-24T00:58:45.663Z,16.28
2018-04-24T00:59:45.675Z,16.26
2018-04-24T01:00:45.458Z,16.05
2018-04-24T01:01:45.467Z,16.32
2018-04-24T01:02:45.748Z,16.33
2018-04-24T01:03:45.508Z,16.47
2018-04-24T01:04:45.533Z,16.58
2018-04-24T01:05:45.559Z,16.47
2018-04-24T01:06:45.626Z,16.42
2018-04-24T01:07:45.697Z,16.49
2018-04-24T01:08:45.881Z,16.54
2018-04-24T01:09:45.947Z,16.53
2018-04-24T01:10:45.666Z,16.43
2018-04-24T01:11:45.690Z,16.51
2018-04-24T01:12:45.713Z,16.29
2018-04-24T01:13:45.994Z,16.41
2018-04-24T01:14:45.757Z,16.47
2018-04-24T01:15:46.036Z,16.38
2018-04-24T01:16:46.058Z,16.41
2018-04-24T01:17:45.570Z,16.51
2018-04-24T01:18:45.842Z,16.54
2018-04-24T01:19:46.127Z,16.56
2018-04-24T01:20:46.152Z,16.54
2018-04-24T01:21:46.168Z,16.53
2018-04-24T01:22:45.681Z,16.64
2018-04-24T01:23:46.211Z,16.65
2018-04-24T01:24:46.034Z,16.71
2018-04-24T01:25:46.005Z,16.58
2018-04-24T01:26:46.292Z,16.41
2018-04-24T01:27:46.048Z,16.5
2018-04-24T01:28:46.327Z,16.57
2018-04-24T01:29:46.359Z,16.61
2018-04-24T01:30:46.366Z,16.57
2018-04-24T01:31:46.387Z,16.56
2018-04-24T01:32:46.160Z,16.53
2018-04-24T01:33:46.432Z,16.5
2018-04-24T01:34:46.514Z,16.51
2018-04-24T01:35:46.225Z,16.53
2018-04-24T01:36:46.249Z,16.53
2018-04-24T01:37:46.518Z,16.64
2018-04-24T01:38:46.535Z,16.2
2018-04-24T01:39:46.569Z,16.17
2018-04-24T01:40:46.339Z,16.41
2018-04-24T01:41:46.608Z,16.42
2018-04-24T01:42:46.693Z,16.5
2018-04-24T01:43:46.662Z,16.53
2018-04-24T01:44:46.448Z,16.42
2018-04-24T01:45:46.450Z,16.58
2018-04-24T01:46:46.723Z,16.68
2018-04-24T01:47:46.748Z,16.39
2018-04-24T01:48:46.766Z,16.12
2018-04-24T01:49:46.787Z,16.09
2018-04-24T01:50:46.320Z,16.13
2018-04-24T01:51:46.837Z,16.17
2018-04-24T01:52:46.644Z,16.05
2018-04-24T01:53:46.897Z,16.23
2018-04-24T01:54:46.901Z,16.28
2018-04-24T01:55:46.919Z,16.09
2018-04-24T01:56:46.937Z,16.13
2018-04-24T01:57:46.705Z,16.1
2018-04-24T01:58:46.720Z,16.1
2018-04-24T01:59:46.746Z,16.08
2018-04-24T02:00:47.026Z,16.1
2018-04-24T02:01:46.790Z,16.16
2018-04-24T02:02:46.809Z,16.04
2018-04-24T02:03:46.833Z,16.04
2018-04-24T02:04:46.856Z,16.1
2018-04-24T02:05:47.140Z,16.04
2018-04-24T02:06:46.913Z,15.97
2018-04-24T02:07:46.723Z,15.84
2018-04-24T02:08:46.958Z,15.91
2018-04-24T02:09:47.229Z,15.84
2018-04-24T02:10:47.244Z,15.9
2018-04-24T02:11:47.270Z,16.1
2018-04-24T02:12:47.040Z,16.16
2018-04-24T02:13:47.322Z,16.29
2018-04-24T02:14:47.340Z,16.43
2018-04-24T02:15:47.358Z,16.41
2018-04-24T02:16:47.126Z,16.42
2018-04-24T02:17:47.402Z,16.39
2018-04-24T02:18:47.170Z,16.26
2018-04-24T02:19:47.191Z,16.31
2018-04-24T02:20:47.217Z,16.41
2018-04-24T02:21:46.980Z,16.29
2018-04-24T02:22:47.651Z,16.13
2018-04-24T02:23:47.526Z,16.13
2018-04-24T02:24:47.545Z,15.94
2018-04-24T02:25:47.578Z,15.79
2018-04-24T02:26:47.600Z,15.86
2018-04-24T02:27:47.622Z,15.68
2018-04-24T02:28:47.641Z,15.79
2018-04-24T02:29:47.669Z,15.72
2018-04-24T02:30:47.693Z,15.77
2018-04-24T02:31:47.452Z,15.76
2018-04-24T02:32:47.732Z,15.79
2018-04-24T02:33:47.755Z,15.76
2018-04-24T02:34:47.784Z,15.79
2018-04-24T02:35:47.539Z,15.7
2018-04-24T02:36:47.589Z,15.72
2018-04-24T02:37:47.892Z,15.77
2018-04-24T02:38:47.862Z,15.75
2018-04-24T02:39:47.375Z,15.65
2018-04-24T02:40:47.912Z,15.76
2018-04-24T02:41:47.419Z,15.61
2018-04-24T02:42:47.945Z,15.64
2018-04-24T02:43:47.714Z,15.64
2018-04-24T02:44:47.734Z,15.76
2018-04-24T02:45:47.757Z,15.7
2018-04-24T02:46:48.030Z,15.76
2018-04-24T02:47:47.798Z,15.82
2018-04-24T02:48:47.818Z,15.75
2018-04-24T02:49:48.097Z,15.76
2018-04-24T02:50:47.863Z,15.72
2018-04-24T02:51:48.139Z,15.82
2018-04-24T02:52:48.214Z,15.8
2018-04-24T02:53:48.181Z,15.8
2018-04-24T02:54:48.209Z,15.83
2018-04-24T02:55:48.225Z,15.79
2018-04-24T02:56:47.745Z,15.73
2018-04-24T02:57:48.318Z,15.76
2018-04-24T02:58:48.296Z,15.83
2018-04-24T02:59:48.068Z,15.75
2018-04-24T03:00:48.084Z,15.88
2018-04-24T03:01:48.097Z,15.79
2018-04-24T03:02:48.375Z,15.84
2018-04-24T03:03:48.148Z,15.84
2018-04-24T03:04:48.162Z,15.79
2018-04-24T03:05:48.451Z,15.82
2018-04-24T03:06:48.472Z,15.97
2018-04-24T03:07:48.551Z,15.77
2018-04-24T03:08:48.257Z,15.79
2018-04-24T03:09:48.572Z,15.9
2018-04-24T03:10:48.556Z,15.94
2018-04-24T03:11:48.461Z,15.86
2018-04-24T03:12:48.603Z,15.77
2018-04-24T03:13:48.621Z,15.82
2018-04-24T03:14:48.633Z,15.7
2018-04-24T03:15:48.659Z,15.76
2018-04-24T03:16:48.675Z,15.7
2018-04-24T03:17:48.700Z,15.84
2018-04-24T03:18:48.467Z,15.83
2018-04-24T03:19:48.487Z,15.91
2018-04-24T03:20:48.761Z,15.76
2018-04-24T03:21:48.787Z,15.62
2018-04-24T03:22:48.608Z,15.72
2018-04-24T03:23:48.578Z,15.82
2018-04-24T03:24:48.875Z,15.77
2018-04-24T03:25:48.877Z,15.83
2018-04-24T03:26:48.899Z,15.75
2018-04-24T03:27:49.019Z,15.75
2018-04-24T03:28:48.948Z,15.79
2018-04-24T03:29:48.712Z,15.82
2018-04-24T03:30:48.986Z,15.9
2018-04-24T03:31:48.758Z,15.82
2018-04-24T03:32:49.025Z,15.91
2018-04-24T03:33:49.052Z,15.97
2018-04-24T03:34:49.071Z,15.9
2018-04-24T03:35:49.098Z,15.88
2018-04-24T03:36:49.113Z,15.79
2018-04-24T03:37:49.189Z,15.91
2018-04-24T03:38:49.148Z,15.79
2018-04-24T03:39:48.918Z,15.76
2018-04-24T03:40:49.201Z,15.86
2018-04-24T03:41:48.960Z,15.79
2018-04-24T03:42:48.983Z,15.77
2018-04-24T03:43:49.258Z,15.77
2018-04-24T03:44:49.288Z,15.79
2018-04-24T03:45:49.065Z,15.95
2018-04-24T03:46:49.068Z,16.04
2018-04-24T03:47:49.150Z,16.1
2018-04-24T03:48:49.372Z,16.12
2018-04-24T03:49:49.137Z,16.09
2018-04-24T03:50:49.412Z,15.98
2018-04-24T03:51:49.433Z,16.09
2018-04-24T03:52:49.458Z,16.13
2018-04-24T03:53:49.481Z,16.13
2018-04-24T03:54:49.253Z,16.05
2018-04-24T03:55:49.015Z,16.09
2018-04-24T03:56:49.541Z,16.2
2018-04-24T03:57:49.618Z,16.26
2018-04-24T03:58:49.333Z,16.1
2018-04-24T03:59:49.611Z,16.24
2018-04-24T04:00:49.380Z,16.21
2018-04-24T04:01:49.403Z,16.35
2018-04-24T04:02:49.422Z,16.31
2018-04-24T04:03:49.188Z,16.21
2018-04-24T04:04:49.466Z,16.26
2018-04-24T04:05:49.741Z,16.1
2018-04-24T04:06:49.759Z,16
2018-04-24T04:07:49.779Z,15.88
2018-04-24T04:08:49.575Z,15.76
2018-04-24T04:09:49.831Z,15.79
2018-04-24T04:10:49.855Z,15.8
2018-04-24T04:11:49.873Z,15.83
2018-04-24T04:12:49.946Z,15.82
2018-04-24T04:13:49.915Z,15.86
2018-04-24T04:14:49.686Z,15.92
2018-04-24T04:15:49.961Z,15.92
2018-04-24T04:16:49.985Z,15.92
2018-04-24T04:17:50.002Z,16.01
2018-04-24T04:18:49.766Z,15.97
2018-04-24T04:19:50.042Z,16.08
2018-04-24T04:20:50.063Z,16
2018-04-24T04:21:50.090Z,16.1
2018-04-24T04:22:50.162Z,15.94
2018-04-24T04:23:50.136Z,15.7
2018-04-24T04:24:50.156Z,15.8
2018-04-24T04:25:50.177Z,15.7
2018-04-24T04:26:50.208Z,15.57
2018-04-24T04:27:50.275Z,15.55
2018-04-24T04:28:50.243Z,15.59
2018-04-24T04:29:50.268Z,15.76
2018-04-24T04:30:50.285Z,15.77
2018-04-24T04:31:50.078Z,15.8
2018-04-24T04:32:50.178Z,15.64
2018-04-24T04:33:50.358Z,15.64
2018-04-24T04:34:50.378Z,15.72
2018-04-24T04:35:50.142Z,15.76
2018-04-24T04:36:50.416Z,15.8
2018-04-24T04:37:50.188Z,15.76
2018-04-24T04:38:49.953Z,15.72
2018-04-24T04:39:50.223Z,15.52
2018-04-24T04:40:50.562Z,15.47
2018-04-24T04:41:50.523Z,15.51
2018-04-24T04:42:50.594Z,15.54
2018-04-24T04:43:50.308Z,15.59
2018-04-24T04:44:50.335Z,15.59
2018-04-24T04:45:50.614Z,15.54
2018-04-24T04:46:50.634Z,15.39
2018-04-24T04:47:50.229Z,15.57
2018-04-24T04:48:50.680Z,15.42
2018-04-24T04:49:50.711Z,15.43
2018-04-24T04:50:50.461Z,15.54
2018-04-24T04:51:50.729Z,15.62
2018-04-24T04:52:50.496Z,15.76
2018-04-24T04:53:50.520Z,15.76
2018-04-24T04:54:50.802Z,15.77
2018-04-24T04:55:50.571Z,15.84
2018-04-24T04:56:50.856Z,15.73
2018-04-24T04:57:50.931Z,15.86
2018-04-24T04:58:50.633Z,15.92
2018-04-24T04:59:50.726Z,15.88
2018-04-24T05:00:50.933Z,16
2018-04-24T05:01:50.946Z,15.98
2018-04-24T05:02:50.972Z,15.95
2018-04-24T05:03:50.741Z,15.92
2018-04-24T05:04:51.016Z,16.01
2018-04-24T05:05:51.042Z,15.98
2018-04-24T05:06:51.068Z,16.08
2018-04-24T05:07:51.090Z,16.24
2018-04-24T05:08:50.851Z,16.29
2018-04-24T05:09:51.124Z,16.21
2018-04-24T05:10:51.146Z,16.13
2018-04-24T05:11:50.917Z,16.15
2018-04-24T05:12:51.238Z,16.24
2018-04-24T05:13:50.958Z,16.05
2018-04-24T05:14:51.236Z,16.01
2018-04-24T05:15:51.263Z,16.21
2018-04-24T05:16:51.023Z,16.16
2018-04-24T05:17:51.297Z,16.28
2018-04-24T05:18:51.065Z,16.28
2018-04-24T05:19:51.352Z,16.33
2018-04-24T05:20:51.375Z,16.36
2018-04-24T05:21:51.384Z,16.36
2018-04-24T05:22:51.409Z,16.36
2018-04-24T05:23:51.448Z,16.41
2018-04-24T05:24:51.202Z,16.47
2018-04-24T05:25:51.233Z,16.58
2018-04-24T05:26:51.500Z,16.51
2018-04-24T05:27:51.318Z,16.56
2018-04-24T05:28:51.545Z,16.56
2018-04-24T05:29:51.572Z,16.64
2018-04-24T05:30:51.592Z,16.53
2018-04-24T05:31:51.609Z,16.66
2018-04-24T05:32:51.376Z,16.6
2018-04-24T05:33:51.659Z,16.56
2018-04-24T05:34:51.676Z,16.43
2018-04-24T05:35:51.916Z,16.47
2018-04-24T05:36:51.727Z,16.43
2018-04-24T05:37:51.993Z,16.39
2018-04-24T05:38:51.765Z,16.39
2018-04-24T05:39:51.790Z,16.26
2018-04-24T05:40:51.576Z,16.31
2018-04-24T05:41:51.829Z,16.46
2018-04-24T05:42:51.697Z,16.54
2018-04-24T05:43:51.873Z,16.68
2018-04-24T05:44:51.641Z,16.66
2018-04-24T05:45:51.923Z,16.56
2018-04-24T05:46:51.683Z,16.57
2018-04-24T05:47:52.017Z,16.53
2018-04-24T05:48:51.736Z,16.65
2018-04-24T05:49:51.762Z,16.57
2018-04-24T05:50:52.034Z,16.61
2018-04-24T05:51:52.062Z,16.54
2018-04-24T05:52:52.133Z,16.58
2018-04-24T05:53:52.116Z,16.66
2018-04-24T05:54:52.128Z,16.74
2018-04-24T05:55:51.632Z,16.89
2018-04-24T05:56:52.172Z,16.89
2018-04-24T05:57:52.105Z,16.84
2018-04-24T05:58:52.217Z,16.75
2018-04-24T05:59:52.006Z,16.89
2018-04-24T06:00:51.745Z,16.78
2018-04-24T06:01:52.273Z,16.65
2018-04-24T06:02:52.302Z,16.72
2018-04-24T06:03:52.076Z,16.79
2018-04-24T06:04:52.086Z,16.83
2018-04-24T06:05:52.106Z,16.94
2018-04-24T06:06:52.392Z,16.86
2018-04-24T06:07:52.466Z,16.93
2018-04-24T06:08:52.431Z,16.84
2018-04-24T06:09:52.453Z,16.75
2018-04-24T06:10:52.527Z,16.79
2018-04-24T06:11:52.502Z,16.79
2018-04-24T06:12:52.343Z,16.76
2018-04-24T06:13:52.289Z,16.76
2018-04-24T06:14:52.314Z,16.84
2018-04-24T06:15:52.599Z,16.89
2018-04-24T06:16:52.615Z,16.89
2018-04-24T06:17:52.380Z,17.04
2018-04-24T06:18:52.408Z,17.09
2018-04-24T06:19:52.428Z,17.22
2018-04-24T06:20:52.721Z,17.29
2018-04-24T06:21:52.479Z,17.39
2018-04-24T06:22:52.545Z,17.26
2018-04-24T06:23:52.781Z,17.36
2018-04-24T06:24:52.811Z,17.33
2018-04-24T06:25:52.820Z,17.29
2018-04-24T06:26:52.865Z,17.41
2018-04-24T06:27:52.863Z,17.45
2018-04-24T06:28:52.630Z,17.46
2018-04-24T06:29:52.931Z,17.54
2018-04-24T06:30:52.683Z,17.51
2018-04-24T06:31:52.967Z,17.59
2018-04-24T06:32:52.980Z,17.54
2018-04-24T06:33:52.998Z,17.57
2018-04-24T06:34:53.022Z,17.41
2018-04-24T06:35:53.102Z,17.34
2018-04-24T06:36:53.073Z,17.41
2018-04-24T06:37:52.900Z,17.41
2018-04-24T06:38:53.115Z,17.46
2018-04-24T06:39:53.158Z,17.34
2018-04-24T06:40:53.159Z,17.49
2018-04-24T06:41:53.186Z,17.54
2018-04-24T06:42:52.762Z,17.41
2018-04-24T06:43:53.231Z,17.51
2018-04-24T06:44:53.257Z,17.7
2018-04-24T06:45:53.026Z,17.68
2018-04-24T06:46:53.051Z,17.74
2018-04-24T06:47:53.277Z,17.76
2018-04-24T06:48:53.092Z,17.82
2018-04-24T06:49:53.112Z,17.97
2018-04-24T06:50:53.389Z,18
2018-04-24T06:51:53.157Z,18.05
2018-04-24T06:52:53.232Z,17.83
2018-04-24T06:53:53.460Z,17.74
2018-04-24T06:54:53.229Z,18.01
2018-04-24T06:55:53.253Z,18.08
2018-04-24T06:56:53.278Z,18.19
2018-04-24T06:57:53.651Z,18.18
2018-04-24T06:58:53.577Z,18.04
2018-04-24T06:59:53.594Z,17.95
2018-04-24T07:00:53.758Z,18.04
2018-04-24T07:01:53.642Z,17.97
2018-04-24T07:02:53.668Z,18.16
2018-04-24T07:03:53.701Z,18.18
2018-04-24T07:04:53.459Z,18.18
2018-04-24T07:05:53.735Z,18.25
2018-04-24T07:06:53.764Z,18.19
2018-04-24T07:07:53.578Z,18.07
2018-04-24T07:08:53.807Z,17.82
2018-04-24T07:09:53.322Z,17.86
2018-04-24T07:10:53.857Z,18.05
2018-04-24T07:11:53.888Z,18.31
2018-04-24T07:12:53.692Z,18.37
2018-04-24T07:13:53.923Z,18.41
2018-04-24T07:14:53.696Z,18.5
2018-04-24T07:15:53.982Z,18.59
2018-04-24T07:16:53.866Z,18.8
2018-04-24T07:17:54.019Z,18.66
2018-04-24T07:18:53.791Z,18.5
2018-04-24T07:19:54.076Z,18.43
2018-04-24T07:20:54.099Z,18.52
2018-04-24T07:21:54.114Z,18.49
2018-04-24T07:22:53.997Z,18.71
2018-04-24T07:23:54.160Z,18.68
2018-04-24T07:24:53.941Z,18.73
2018-04-24T07:25:53.956Z,18.5
2018-04-24T07:26:53.981Z,18.4
2018-04-24T07:27:54.311Z,18.38
2018-04-24T07:28:54.283Z,18.38
2018-04-24T07:29:54.062Z,18.4
2018-04-24T07:30:54.332Z,18.45
2018-04-24T07:31:54.111Z,18.4
2018-04-24T07:32:54.456Z,18.18
2018-04-24T07:33:54.143Z,18.26
2018-04-24T07:34:54.167Z,18.05
2018-04-24T07:35:54.197Z,18.01
2018-04-24T07:36:54.499Z,17.98
2018-04-24T07:37:54.495Z,18.1
2018-04-24T07:38:54.522Z,18.1
2018-04-24T07:39:54.035Z,18.2
2018-04-24T07:40:54.313Z,18.2
2018-04-24T07:41:54.596Z,18.26
2018-04-24T07:42:54.683Z,18.41
2018-04-24T07:43:54.644Z,18.41
2018-04-24T07:44:54.410Z,18.49
2018-04-24T07:45:54.690Z,18.6
2018-04-24T07:46:54.703Z,18.58
2018-04-24T07:47:54.729Z,18.58
2018-04-24T07:48:54.534Z,18.73
2018-04-24T07:49:54.270Z,18.81
2018-04-24T07:50:54.828Z,18.93
2018-04-24T07:51:54.827Z,19.08
2018-04-24T07:52:54.847Z,19.11
2018-04-24T07:53:54.614Z,19.15
2018-04-24T07:54:54.899Z,18.93
2018-04-24T07:55:54.666Z,18.86
2018-04-24T07:56:55.026Z,18.92
2018-04-24T07:57:54.761Z,19.19
2018-04-24T07:58:54.748Z,19.37
2018-04-24T07:59:55.016Z,19.4
2018-04-24T08:00:55.036Z,19.33
2018-04-24T08:01:54.577Z,19.4
2018-04-24T08:02:54.939Z,19.31
2018-04-24T08:03:54.877Z,19.29
2018-04-24T08:04:55.142Z,19.33
2018-04-24T08:05:54.912Z,19.4
2018-04-24T08:06:54.939Z,19.4
2018-04-24T08:07:55.221Z,19.34
2018-04-24T08:08:55.240Z,19.56
2018-04-24T08:09:55.015Z,19.63
2018-04-24T08:10:55.304Z,19.67
2018-04-24T08:11:55.059Z,19.59
2018-04-24T08:12:55.394Z,19.49
2018-04-24T08:13:55.107Z,19.54
2018-04-24T08:14:55.407Z,19.7
2018-04-24T08:15:55.157Z,19.95
2018-04-24T08:16:55.175Z,20.07
2018-04-24T08:17:55.441Z,20.22
2018-04-24T08:18:55.481Z,20.31
2018-04-24T08:19:55.511Z,20.19
2018-04-24T08:20:55.540Z,20.5
2018-04-24T08:21:55.564Z,20.65
2018-04-24T08:22:55.850Z,20.36
2018-04-24T08:23:55.360Z,20.36
2018-04-24T08:24:55.629Z,20.37
2018-04-24T08:25:55.405Z,20.43
2018-04-24T08:26:55.688Z,20.52
2018-04-24T08:27:55.719Z,20.58
2018-04-24T08:28:55.733Z,20.37
2018-04-24T08:29:55.758Z,20.21
2018-04-24T08:30:55.788Z,20.22
2018-04-24T08:31:55.806Z,20.21
2018-04-24T08:32:55.586Z,20.18
2018-04-24T08:33:55.900Z,20.21
2018-04-24T08:34:55.888Z,20.21
2018-04-24T08:35:55.652Z,20.29
2018-04-24T08:36:55.940Z,20.32
2018-04-24T08:37:56.012Z,20.44
2018-04-24T08:38:56.005Z,20.66
2018-04-24T08:39:56.012Z,20.72
2018-04-24T08:40:56.037Z,20.88
2018-04-24T08:41:56.186Z,21.02
2018-04-24T08:42:56.100Z,21.05
2018-04-24T08:43:56.112Z,20.97
2018-04-24T08:44:56.137Z,21
2018-04-24T08:45:56.159Z,20.92
2018-04-24T08:46:56.196Z,20.97
2018-04-24T08:47:56.392Z,20.97
2018-04-24T08:48:55.984Z,20.99
2018-04-24T08:49:56.009Z,21.18
2018-04-24T08:50:56.292Z,21.2
2018-04-24T08:51:56.318Z,21.21
2018-04-24T08:52:56.090Z,21.02
2018-04-24T08:53:56.367Z,21.05
2018-04-24T08:54:56.390Z,21.03
2018-04-24T08:55:56.418Z,20.55
2018-04-24T08:56:56.188Z,20.4
2018-04-24T08:57:56.213Z,20.51
2018-04-24T08:58:56.490Z,20.43
2018-04-24T08:59:56.517Z,20.58
2018-04-24T09:00:56.290Z,20.56
2018-04-24T09:01:56.641Z,20.81
2018-04-24T09:02:56.346Z,20.88
2018-04-24T09:03:56.614Z,20.97
2018-04-24T09:04:56.645Z,21.03
2018-04-24T09:05:56.675Z,21.22
2018-04-24T09:06:56.695Z,21.03
2018-04-24T09:07:56.472Z,20.9
2018-04-24T09:08:56.770Z,20.6
2018-04-24T09:09:56.780Z,20.21
2018-04-24T09:10:56.561Z,20.34
2018-04-24T09:11:56.830Z,20.52
2018-04-24T09:12:56.852Z,20.6
2018-04-24T09:13:56.890Z,20.59
2018-04-24T09:14:56.905Z,20.75
2018-04-24T09:15:56.420Z,21.14
2018-04-24T09:16:56.703Z,21.33
2018-04-24T09:17:56.978Z,21.39
2018-04-24T09:18:56.757Z,21.48
2018-04-24T09:19:56.525Z,21.72
2018-04-24T09:20:56.806Z,21.82
2018-04-24T09:21:57.106Z,22.15
2018-04-24T09:22:57.108Z,22.41
2018-04-24T09:23:57.139Z,22.69
2018-04-24T09:24:57.176Z,22.65
2018-04-24T09:25:57.189Z,22.44
2018-04-24T09:26:57.410Z,22.53
2018-04-24T09:27:56.987Z,22.18
2018-04-24T09:28:57.271Z,22.14
2018-04-24T09:29:57.294Z,21.83
2018-04-24T09:30:57.064Z,22
2018-04-24T09:31:57.348Z,22.04
2018-04-24T09:32:57.375Z,22.17
2018-04-24T09:33:56.888Z,22.25
2018-04-24T09:34:57.185Z,22.41
2018-04-24T09:35:57.206Z,22.08
2018-04-24T09:36:57.227Z,21.95
2018-04-24T09:37:57.513Z,21.76
2018-04-24T09:38:57.304Z,21.54
2018-04-24T09:39:57.315Z,21.62
2018-04-24T09:40:57.085Z,21.64
2018-04-24T09:41:57.360Z,21.8
2018-04-24T09:42:57.659Z,21.83
2018-04-24T09:43:57.578Z,21.92
2018-04-24T09:44:57.441Z,22.15
2018-04-24T09:45:57.869Z,22.26
2018-04-24T09:46:57.503Z,22.54
2018-04-24T09:47:57.782Z,22.73
2018-04-24T09:48:58.108Z,22.65
2018-04-24T09:49:57.839Z,22.93
2018-04-24T09:50:57.622Z,23.36
2018-04-24T09:51:57.632Z,23.39
2018-04-24T09:52:57.911Z,23.54
2018-04-24T09:53:57.693Z,23.8
2018-04-24T09:54:57.973Z,23.76
2018-04-24T09:55:58.204Z,23.32
2018-04-24T09:56:58.124Z,23.55
2018-04-24T09:57:58.057Z,23.98
2018-04-24T09:58:57.838Z,24.17
2018-04-24T09:59:58.108Z,23.91
2018-04-24T10:00:58.146Z,23.91
2018-04-24T10:01:58.171Z,23.62
2018-04-24T10:02:57.948Z,23.36
2018-04-24T10:03:57.981Z,23.62
2018-04-24T10:04:58.013Z,23.34
2018-04-24T10:05:58.287Z,23.1
2018-04-24T10:06:58.272Z,23.27
2018-04-24T10:07:58.525Z,23.41
2018-04-24T10:08:58.368Z,23.46
2018-04-24T10:09:58.417Z,23.48
2018-04-24T10:10:58.432Z,23.78
2018-04-24T10:11:58.463Z,24.05
2018-04-24T10:12:58.518Z,24.08
2018-04-24T10:13:58.268Z,24.2
2018-04-24T10:14:58.566Z,24.29
2018-04-24T10:15:58.576Z,23.92
2018-04-24T10:16:58.612Z,23.86
2018-04-24T10:17:58.419Z,23.92
2018-04-24T10:18:58.157Z,24.11
2018-04-24T10:19:58.698Z,24.26
2018-04-24T10:20:58.727Z,24.55
2018-04-24T10:21:58.751Z,25.04
2018-04-24T10:22:58.270Z,25.14
2018-04-24T10:23:58.560Z,25.46
2018-04-24T10:24:58.837Z,25.78
2018-04-24T10:25:58.615Z,25.77
2018-04-24T10:26:58.908Z,25.84
2018-04-24T10:27:58.928Z,25.9
2018-04-24T10:28:58.445Z,25.7
2018-04-24T10:29:58.727Z,25.14
2018-04-24T10:30:58.766Z,24.78
2018-04-24T10:31:59.042Z,24.16
2018-04-24T10:32:58.815Z,23.88
2018-04-24T10:33:58.841Z,23.84
2018-04-24T10:34:59.135Z,23.37
2018-04-24T10:35:58.902Z,23.43
2018-04-24T10:36:59.193Z,23.34
2018-04-24T10:37:59.208Z,23.51
2018-04-24T10:38:59.239Z,23.74
2018-04-24T10:39:59.267Z,23.86
2018-04-24T10:40:58.791Z,23.95
2018-04-24T10:41:58.816Z,24.05
2018-04-24T10:42:59.105Z,24.3
2018-04-24T10:43:58.885Z,24.21
2018-04-24T10:44:59.423Z,24.23
2018-04-24T10:45:59.199Z,24.6
2018-04-24T10:46:59.476Z,24.61
2018-04-24T10:47:59.014Z,25.06
2018-04-24T10:48:59.320Z,25.41
2018-04-24T10:49:59.307Z,25.7
2018-04-24T10:50:59.336Z,25.78
2018-04-24T10:51:59.110Z,25.8
2018-04-24T10:52:59.402Z,26.25
2018-04-24T10:53:59.683Z,26.44
2018-04-24T10:54:59.711Z,26.28
2018-04-24T10:55:59.931Z,26.15
2018-04-24T10:56:59.519Z,26.71
2018-04-24T10:57:59.544Z,27.07
2018-04-24T10:58:59.590Z,26.7
2018-04-24T10:59:59.600Z,25.73
2018-04-24T11:00:59.884Z,25.55
2018-04-24T11:01:59.918Z,25.35
2018-04-24T11:02:59.953Z,25.16
2018-04-24T11:03:59.988Z,25.66
2018-04-24T11:05:00.004Z,25.96
2018-04-24T11:05:59.779Z,26.25
2018-04-24T11:06:59.829Z,26.74
2018-04-24T11:07:59.837Z,26.9
2018-04-24T11:09:00.131Z,27.02
2018-04-24T11:09:59.645Z,27.25
2018-04-24T11:11:00.191Z,27.4
2018-04-24T11:12:00.041Z,27.82
2018-04-24T11:12:59.990Z,27.96
2018-04-24T11:14:00.275Z,28.2
2018-04-24T11:15:00.314Z,28.47
2018-04-24T11:16:00.333Z,27.98
2018-04-24T11:17:00.118Z,27.45
2018-04-24T11:18:00.149Z,27.32
2018-04-24T11:19:00.428Z,27.2
2018-04-24T11:20:00.471Z,27.51
2018-04-24T11:21:00.496Z,28.08
2018-04-24T11:22:00.278Z,28.2
2018-04-24T11:23:00.570Z,28.66
2018-04-24T11:24:00.596Z,28.81
2018-04-24T11:25:00.622Z,28.79
2018-04-24T11:26:00.401Z,29.31
2018-04-24T11:27:00.691Z,29.5
2018-04-24T11:28:00.725Z,29.94
2018-04-24T11:29:00.506Z,30.09
2018-04-24T11:30:00.537Z,29.94
2018-04-24T11:31:00.566Z,30.08
2018-04-24T11:32:00.802Z,30.25
2018-04-24T11:33:00.375Z,30.48
2018-04-24T11:34:00.931Z,29.87
2018-04-24T11:35:00.952Z,29.19
2018-04-24T11:36:00.906Z,29.01
2018-04-24T11:37:00.764Z,29.39
2018-04-24T11:38:00.809Z,29.2
2018-04-24T11:39:01.080Z,28.86
2018-04-24T11:40:01.116Z,29.05
2018-04-24T11:41:00.899Z,28.93
2018-04-24T11:42:00.929Z,29.23
2018-04-24T11:43:00.963Z,28.86
2018-04-24T11:44:01.383Z,28.6
2018-04-24T11:45:01.278Z,27.77
2018-04-24T11:46:01.314Z,27.33
2018-04-24T11:47:01.343Z,27.45
2018-04-24T11:48:01.125Z,28.02
2018-04-24T11:49:00.903Z,28.33
2018-04-24T11:50:01.195Z,28.74
2018-04-24T11:51:01.476Z,28.93
2018-04-24T11:52:00.994Z,29.05
2018-04-24T11:53:01.555Z,29.26
2018-04-24T11:54:01.317Z,29.2
2018-04-24T11:55:01.403Z,29.75
2018-04-24T11:56:01.641Z,30.43
2018-04-24T11:57:01.417Z,31.18
2018-04-24T11:58:01.699Z,32.08
2018-04-24T11:59:01.739Z,32.43
2018-04-24T12:00:01.509Z,32.18
2018-04-24T12:01:01.801Z,31.36
2018-04-24T12:02:01.835Z,31.03
2018-04-24T12:03:01.891Z,31.14
2018-04-24T12:04:01.643Z,30.92
2018-04-24T12:05:01.726Z,29.94
2018-04-24T12:06:01.957Z,30.02
2018-04-24T12:07:01.728Z,30.35
2018-04-24T12:08:02.021Z,30.85
2018-04-24T12:09:02.060Z,31.34
2018-04-24T12:10:02.259Z,31.74
2018-04-24T12:11:02.116Z,30.87
2018-04-24T12:12:01.900Z,30.65
2018-04-24T12:13:02.196Z,30.44
2018-04-24T12:14:02.223Z,29.53
2018-04-24T12:15:02.250Z,29.78
2018-04-24T12:16:02.287Z,30.35
2018-04-24T12:17:02.318Z,31.06
2018-04-24T12:18:02.102Z,30.73
2018-04-24T12:19:02.151Z,30.7
2018-04-24T12:20:02.470Z,30.51
2018-04-24T12:21:02.196Z,29.87
2018-04-24T12:22:02.498Z,29.61
2018-04-24T12:23:02.006Z,29.93
2018-04-24T12:24:02.285Z,30.59
2018-04-24T12:25:02.593Z,31.39
2018-04-24T12:26:02.603Z,31.46
2018-04-24T12:27:02.639Z,31.31
2018-04-24T12:28:02.671Z,31.58
2018-04-24T12:29:02.702Z,31.93
2018-04-24T12:30:02.485Z,32.58
2018-04-24T12:31:02.765Z,33.45
2018-04-24T12:32:02.804Z,34.17
2018-04-24T12:33:02.580Z,33.61
2018-04-24T12:34:02.867Z,32.74
2018-04-24T12:35:02.697Z,32.56
2018-04-24T12:36:02.677Z,32.97
2018-04-24T12:37:02.964Z,33.49
2018-04-24T12:38:03.000Z,33.69
2018-04-24T12:39:03.044Z,33.14
2018-04-24T12:40:02.814Z,33.15
2018-04-24T12:41:03.103Z,33.58
2018-04-24T12:42:03.126Z,33.12
2018-04-24T12:43:03.165Z,32.73
2018-04-24T12:44:03.198Z,32.67
2018-04-24T12:45:02.976Z,32.67
2018-04-24T12:46:03.261Z,33.08
2018-04-24T12:47:03.300Z,32
2018-04-24T12:48:03.091Z,31.49
2018-04-24T12:49:03.379Z,31.55
2018-04-24T12:50:03.194Z,32
2018-04-24T12:51:03.476Z,32.36
2018-04-24T12:52:03.227Z,32.63
2018-04-24T12:53:03.511Z,33.5
2018-04-24T12:54:03.292Z,34.33
2018-04-24T12:55:03.584Z,35.04
2018-04-24T12:56:03.363Z,35.33
2018-04-24T12:57:03.658Z,35.64